Rocky Comfort, Missouri
Current Conditions -  °F | °C
As of 8:35 AM on Friday 28 Nov 2014 (Local Time) from KHFJ Reporting Station
Clear Clear  
Wind Chill: 35°   Ceiling: Unl
Heat Index: 43°   Visibility: 10mi
Dew Point: 28°   Wind: 17mph
Humidity: 57%   Direction: 180°S
Pressure: 30.1"   Gusts: 25mph
Location:  36.75°N, 94.09°W
Report Text: KHFJ 281435Z AUTO 18015G22KT 10SM CLR 06/M02 A3010 RMK AO2
Loading
Personal Weather Stations






























Interactive Weather Map New forecast layout! Learn more

10-Day Weather Forecast

Advertisements
Track Severe Weather on mobile